Time;durP1;ratioP1;P1;durP2;ratioP2;P2;SDS_P1;SDS_P2;PMS_P1;PMS_P2;Temp;Humidity;BMP_temperature;BMP_pressure;BME280_temperature;BME280_humidity;BME280_pressure;Samples;Min_cycle;Max_cycle;Signal;HPM_P1;HPM_P2
2023/02/23 00:01:17;;;;;;;29.63;14.67;;;7.60;99.90;;;;;;5053471;28;20532;-48
2023/02/23 00:03:44;;;;;;;25.33;14.30;;;7.50;99.90;;;;;;5053638;28;20458;-47
2023/02/23 00:06:12;;;;;;;31.33;15.30;;;7.40;99.90;;;;;;5053334;28;20543;-48
2023/02/23 00:08:40;;;;;;;30.47;14.93;;;7.50;99.90;;;;;;5053193;28;20438;-48
2023/02/23 00:11:10;;;;;;;34.53;16.07;;;7.50;99.90;;;;;;5053298;28;20565;-47
2023/02/23 00:13:37;;;;;;;29.03;14.43;;;7.50;99.90;;;;;;5053423;28;20417;-48
2023/02/23 00:16:06;;;;;;;28.60;15.70;;;7.40;99.90;;;;;;5035228;28;20865;-49
2023/02/23 00:18:43;;;;;;;26.13;15.10;;;7.60;99.90;;;;;;5053089;28;21023;-49
2023/02/23 00:21:13;;;;;;;29.07;14.90;;;7.50;99.90;;;;;;5053133;28;20408;-48
2023/02/23 00:23:42;;;;;;;23.90;14.80;;;7.60;99.90;;;;;;5053433;28;20412;-48
2023/02/23 00:26:10;;;;;;;27.20;14.97;;;7.50;99.90;;;;;;5035069;28;20485;-48
2023/02/23 00:28:36;;;;;;;26.67;15.23;;;7.00;99.90;;;;;;5052761;28;20455;-47
2023/02/23 00:31:03;;;;;;;27.27;15.23;;;7.90;99.90;;;;;;5052943;28;20470;-48
2023/02/23 00:33:30;;;;;;;28.07;15.40;;;7.40;99.90;;;;;;5035160;28;20478;-47
2023/02/23 00:36:03;;;;;;;25.63;14.73;;;7.60;99.90;;;;;;5052830;28;20482;-48
2023/02/23 00:38:33;;;;;;;28.50;15.10;;;7.60;99.90;;;;;;5034836;28;20424;-49
2023/02/23 00:41:04;;;;;;;30.47;16.03;;;7.60;99.90;;;;;;5052970;28;20413;-48
2023/02/23 00:43:33;;;;;;;24.67;14.47;;;7.50;99.90;;;;;;5052834;28;20412;-48
2023/02/23 00:46:04;;;;;;;30.17;15.10;;;7.00;99.90;;;;;;5052843;28;20451;-49
2023/02/23 00:48:31;;;;;;;27.30;15.17;;;7.40;99.90;;;;;;5052470;28;20907;-49
2023/02/23 00:51:00;;;;;;;28.00;14.60;;;7.50;99.90;;;;;;5052647;28;20968;-47
2023/02/23 00:53:26;;;;;;;28.43;16.23;;;7.50;99.90;;;;;;5034706;28;20450;-49
2023/02/23 00:55:53;;;;;;;27.70;17.40;;;7.30;99.90;;;;;;5034764;28;20449;-48
2023/02/23 00:58:21;;;;;;;35.43;16.83;;;7.40;99.90;;;;;;5052610;28;20417;-47
2023/02/23 01:00:48;;;;;;;28.17;15.90;;;7.40;99.90;;;;;;5052116;28;20444;-48
2023/02/23 01:03:14;;;;;;;32.33;16.13;;;7.90;99.90;;;;;;5052751;28;20437;-48
2023/02/23 01:05:42;;;;;;;31.60;17.00;;;7.40;99.90;;;;;;5034517;28;20810;-48
2023/02/23 01:08:10;;;;;;;27.63;15.03;;;7.80;99.90;;;;;;5034497;28;20485;-47
2023/02/23 01:10:41;;;;;;;26.40;16.30;;;7.30;99.90;;;;;;5052610;28;20503;-48
2023/02/23 01:13:09;;;;;;;29.23;16.10;;;6.70;99.90;;;;;;5034896;28;20534;-48
2023/02/23 01:15:41;;;;;;;27.17;17.00;;;7.10;99.90;;;;;;5034227;28;20529;-49
2023/02/23 01:18:07;;;;;;;32.80;17.47;;;7.80;99.90;;;;;;5051938;28;20413;-49
2023/02/23 01:20:35;;;;;;;33.37;17.00;;;7.30;99.90;;;;;;5052199;28;20420;-48
2023/02/23 01:23:02;;;;;;;26.07;16.30;;;7.20;99.90;;;;;;5052158;28;20534;-49
2023/02/23 01:25:29;;;;;;;26.37;15.73;;;7.20;99.90;;;;;;5052230;28;20424;-48
2023/02/23 01:27:56;;;;;;;29.83;15.77;;;6.90;99.90;;;;;;5051735;28;20469;-48
2023/02/23 01:30:23;;;;;;;23.83;15.80;;;6.80;99.90;;;;;;5051732;28;20930;-48
2023/02/23 01:32:51;;;;;;;31.67;15.50;;;7.20;99.90;;;;;;5033891;28;20453;-47
2023/02/23 01:35:20;;;;;;;29.23;16.27;;;7.30;99.90;;;;;;5034197;28;20458;-47
2023/02/23 01:37:49;;;;;;;35.23;18.27;;;7.30;99.90;;;;;;5034010;28;20466;-46
2023/02/23 01:40:27;;;;;;;31.33;15.70;;;7.10;99.90;;;;;;5033719;28;20446;-50
2023/02/23 01:42:56;;;;;;;30.27;17.40;;;7.20;99.90;;;;;;5051925;28;20426;-49
2023/02/23 01:45:29;;;;;;;30.23;16.20;;;7.10;99.90;;;;;;5051810;28;20407;-50
2023/02/23 01:48:01;;;;;;;37.97;17.10;;;7.10;99.90;;;;;;5051627;28;20460;-48
2023/02/23 01:50:36;;;;;;;32.27;17.40;;;7.30;99.90;;;;;;5051651;28;20420;-48
2023/02/23 01:53:03;;;;;;;23.60;16.67;;;6.70;99.90;;;;;;5051555;28;20851;-47
2023/02/23 01:55:30;;;;;;;30.70;16.00;;;7.50;99.90;;;;;;5033670;28;20464;-47
2023/02/23 01:58:06;;;;;;;30.93;17.30;;;7.10;99.90;;;;;;5051380;28;20457;-49
2023/02/23 02:00:35;;;;;;;29.00;18.07;;;7.10;99.90;;;;;;5033671;28;20453;-48
2023/02/23 02:03:10;;;;;;;29.10;16.63;;;7.30;99.90;;;;;;5033429;28;20428;-49
2023/02/23 02:05:38;;;;;;;34.90;16.73;;;6.90;99.90;;;;;;5033489;28;20458;-48
2023/02/23 02:08:09;;;;;;;32.40;17.23;;;7.10;99.90;;;;;;5033190;28;20469;-50
2023/02/23 02:10:44;;;;;;;30.70;17.23;;;7.00;99.90;;;;;;5033527;28;20999;-48
2023/02/23 02:13:17;;;;;;;30.07;15.97;;;7.10;99.90;;;;;;5032561;28;20479;-48
2023/02/23 02:15:57;;;;;;;28.63;16.73;;;7.10;99.90;;;;;;5051149;28;20426;-48
2023/02/23 02:18:36;;;;;;;26.67;16.27;;;7.40;99.90;;;;;;5051042;28;20444;-47
2023/02/23 02:21:29;;;;;;;32.00;17.00;;;7.10;99.90;;;;;;5033470;28;20447;-48
2023/02/23 02:24:32;;;;;;;31.50;16.43;;;6.80;99.90;;;;;;5033186;28;20444;-47
2023/02/23 02:27:11;;;;;;;25.13;17.77;;;7.10;99.90;;;;;;5051144;28;20439;-48
2023/02/23 02:30:18;;;;;;;25.60;17.10;;;7.10;99.90;;;;;;5050829;28;20444;-47
2023/02/23 02:33:31;;;;;;;30.70;16.33;;;6.90;99.90;;;;;;5050903;28;20444;-49
2023/02/23 02:36:47;;;;;;;34.60;16.00;;;6.70;99.90;;;;;;5051127;28;20833;-47
2023/02/23 02:39:22;;;;;;;25.43;15.03;;;6.70;99.90;;;;;;4934346;29;20943;-48
2023/02/23 02:41:56;;;;;;;27.33;15.90;;;6.90;99.90;;;;;;5028122;28;20423;-48
2023/02/23 02:44:30;;;;;;;37.60;17.80;;;6.90;99.90;;;;;;5051047;28;20459;-48
2023/02/23 02:47:06;;;;;;;35.77;18.10;;;6.80;99.90;;;;;;5033339;28;20807;-47
2023/02/23 02:49:44;;;;;;;28.40;17.13;;;7.30;99.90;;;;;;5050590;28;20448;-48
2023/02/23 02:52:17;;;;;;;27.57;16.00;;;6.80;99.90;;;;;;5050972;28;20451;-48
2023/02/23 02:54:52;;;;;;;30.43;16.93;;;6.70;99.90;;;;;;5050965;28;20477;-48
2023/02/23 02:57:22;;;;;;;30.37;16.37;;;6.80;99.90;;;;;;5033030;28;20438;-48
2023/02/23 04:18:39;;;;;;;29.17;17.17;;;6.60;99.90;;;;;;5053122;28;20445;-48
2023/02/23 04:21:07;;;;;;;27.60;16.37;;;6.30;99.90;;;;;;5053485;28;20408;-48
2023/02/23 04:23:34;;;;;;;31.60;19.00;;;6.00;99.90;;;;;;5053184;28;20948;-47
2023/02/23 04:26:01;;;;;;;29.20;16.70;;;6.50;99.90;;;;;;5053320;28;20432;-49
2023/02/23 04:28:28;;;;;;;30.20;16.97;;;6.50;99.90;;;;;;5052744;28;20414;-49
2023/02/23 04:30:55;;;;;;;29.90;18.30;;;6.00;99.90;;;;;;5053073;28;20940;-46
2023/02/23 04:33:23;;;;;;;31.67;18.47;;;6.00;99.90;;;;;;5052839;28;20450;-49
2023/02/23 04:35:52;;;;;;;28.40;18.00;;;6.40;99.90;;;;;;5052118;28;20436;-49
2023/02/23 04:38:19;;;;;;;29.03;17.00;;;5.60;99.90;;;;;;5034676;28;20426;-46
2023/02/23 04:40:45;;;;;;;28.30;17.43;;;6.40;99.90;;;;;;5053079;28;20790;-47
2023/02/23 04:43:12;;;;;;;33.87;19.50;;;6.30;99.90;;;;;;5052950;28;20748;-48
2023/02/23 04:45:39;;;;;;;24.17;16.53;;;6.20;99.90;;;;;;5052770;28;20398;-48
2023/02/23 04:48:06;;;;;;;29.93;17.57;;;6.10;99.90;;;;;;5052398;28;20904;-49
2023/02/23 04:50:33;;;;;;;35.23;19.53;;;6.10;99.90;;;;;;5052830;28;20415;-47
2023/02/23 04:53:01;;;;;;;29.00;15.90;;;6.20;99.90;;;;;;5052540;28;20821;-49
2023/02/23 04:55:28;;;;;;;28.87;16.77;;;6.10;99.90;;;;;;5052707;28;20398;-49
2023/02/23 04:57:59;;;;;;;35.87;19.10;;;6.10;99.90;;;;;;5052529;28;20427;-48
2023/02/23 05:00:28;;;;;;;34.87;17.80;;;6.20;99.90;;;;;;5052298;28;20920;-48
2023/02/23 05:02:54;;;;;;;30.30;17.83;;;5.50;99.90;;;;;;5052711;28;20431;-48
2023/02/23 05:05:21;;;;;;;28.80;17.53;;;6.10;99.90;;;;;;5052282;28;20411;-48
2023/02/23 05:07:48;;;;;;;34.10;16.70;;;6.00;99.90;;;;;;5092110;22;20537;-49
2023/02/23 05:10:16;;;;;;;33.93;19.53;;;6.30;99.90;;;;;;5072757;28;20431;-51
2023/02/23 05:12:43;;;;;;;27.37;17.27;;;6.30;99.90;;;;;;5072996;28;20454;-50
2023/02/23 05:15:10;;;;;;;27.50;16.83;;;6.00;99.90;;;;;;5073394;28;20753;-49
2023/02/23 05:17:40;;;;;;;29.90;16.17;;;6.20;99.90;;;;;;5073046;28;20458;-49
2023/02/23 05:20:07;;;;;;;31.53;18.50;;;6.20;99.90;;;;;;5072614;28;20443;-50
2023/02/23 05:22:34;;;;;;;31.07;17.77;;;6.30;99.90;;;;;;5072898;28;20412;-49
2023/02/23 05:25:01;;;;;;;25.23;16.47;;;5.80;99.90;;;;;;5072759;28;20430;-50
2023/02/23 05:27:29;;;;;;;28.27;18.60;;;6.10;99.90;;;;;;5071500;28;20533;-50
2023/02/23 05:29:55;;;;;;;30.00;18.00;;;5.90;99.90;;;;;;5072561;28;20447;-51
2023/02/23 05:32:22;;;;;;;30.43;18.00;;;6.00;99.90;;;;;;5072972;28;20470;-49
2023/02/23 05:34:48;;;;;;;27.70;17.37;;;6.10;99.90;;;;;;5073019;28;20435;-51
2023/02/23 05:37:15;;;;;;;35.37;17.73;;;5.30;99.90;;;;;;5073056;28;20451;-50
2023/02/23 05:39:42;;;;;;;38.27;18.50;;;5.90;99.90;;;;;;5072363;28;20936;-50
2023/02/23 05:42:09;;;;;;;34.37;17.07;;;5.70;99.90;;;;;;5071334;28;20443;-50
2023/02/23 05:44:37;;;;;;;53.10;17.60;;;5.60;99.90;;;;;;5072630;28;20835;-51
2023/02/23 05:47:04;;;;;;;28.37;16.23;;;5.90;99.90;;;;;;5072873;28;20459;-51
2023/02/23 05:49:30;;;;;;;26.17;16.00;;;5.90;99.90;;;;;;5072681;28;20409;-50
2023/02/23 05:51:57;;;;;;;33.23;17.30;;;5.80;99.90;;;;;;5072602;28;20411;-50
2023/02/23 05:54:23;;;;;;;34.20;17.27;;;6.00;99.90;;;;;;5072633;28;20479;-49
2023/02/23 05:56:50;;;;;;;31.47;17.67;;;5.90;99.90;;;;;;5072373;28;20508;-50
2023/02/23 05:59:17;;;;;;;42.70;18.40;;;5.80;99.90;;;;;;5072278;28;20412;-50
2023/02/23 06:01:45;;;;;;;29.77;16.93;;;5.90;99.90;;;;;;5072417;28;20449;-51
2023/02/23 06:04:12;;;;;;;30.07;17.83;;;5.50;99.90;;;;;;5072496;28;20522;-50
2023/02/23 06:06:39;;;;;;;35.70;17.93;;;5.90;99.90;;;;;;5072164;28;20445;-49
2023/02/23 06:09:06;;;;;;;33.30;18.30;;;5.60;99.90;;;;;;5071352;28;20786;-50
2023/02/23 06:11:33;;;;;;;36.03;18.63;;;5.40;99.90;;;;;;5071090;28;20794;-51
2023/02/23 06:14:00;;;;;;;34.40;18.27;;;5.60;99.90;;;;;;5072070;28;20811;-49
2023/02/23 06:16:27;;;;;;;37.60;19.13;;;5.80;99.90;;;;;;5072181;28;20421;-50
2023/02/23 06:18:55;;;;;;;28.07;16.63;;;5.60;99.90;;;;;;5071473;28;20917;-51
2023/02/23 06:21:23;;;;;;;33.00;19.17;;;5.90;99.90;;;;;;5071955;28;20434;-51
2023/02/23 06:23:52;;;;;;;28.70;16.60;;;5.70;99.90;;;;;;5071918;28;20432;-51
2023/02/23 06:26:19;;;;;;;34.57;16.67;;;5.60;99.90;;;;;;5071898;28;20445;-51
2023/02/23 06:28:46;;;;;;;31.00;19.07;;;5.90;99.90;;;;;;5071030;28;20446;-52
2023/02/23 06:31:12;;;;;;;29.90;18.50;;;5.40;99.90;;;;;;5071697;28;20441;-51
2023/02/23 06:33:39;;;;;;;26.90;17.10;;;5.90;99.90;;;;;;5071348;28;20529;-51
2023/02/23 06:36:09;;;;;;;32.43;18.20;;;5.40;99.90;;;;;;5070023;28;20452;-50
2023/02/23 06:38:35;;;;;;;31.40;19.23;;;5.80;99.90;;;;;;5071251;28;20406;-51
2023/02/23 06:41:07;;;;;;;28.87;18.87;;;5.60;99.90;;;;;;5070172;28;20451;-51
2023/02/23 06:43:34;;;;;;;27.83;18.63;;;5.80;99.90;;;;;;5069725;28;20555;-52
2023/02/23 06:46:00;;;;;;;31.97;18.93;;;5.50;99.90;;;;;;5071046;28;20440;-51
2023/02/23 06:48:27;;;;;;;31.33;17.20;;;5.30;99.90;;;;;;5071162;28;20439;-51
2023/02/23 06:50:54;;;;;;;37.93;18.97;;;5.40;99.90;;;;;;5071948;28;20439;-51
2023/02/23 06:53:23;;;;;;;35.47;19.63;;;5.70;99.90;;;;;;5071616;28;20479;-50
2023/02/23 06:55:50;;;;;;;27.27;17.13;;;6.00;99.90;;;;;;5071478;28;20457;-51
2023/02/23 06:58:17;;;;;;;36.53;19.00;;;5.70;99.90;;;;;;5071230;28;20428;-51
2023/02/23 07:00:44;;;;;;;38.53;19.37;;;6.00;99.90;;;;;;5075827;28;20431;-51
2023/02/23 07:03:10;;;;;;;31.77;18.70;;;5.30;99.90;;;;;;5075141;28;20432;-51
2023/02/23 07:05:37;;;;;;;38.97;18.80;;;6.00;99.90;;;;;;5075517;28;20500;-51
2023/02/23 07:08:05;;;;;;;30.80;19.80;;;5.70;99.90;;;;;;5074257;28;20437;-50
2023/02/23 07:10:33;;;;;;;27.20;17.60;;;6.00;99.90;;;;;;5073775;28;20417;-51
2023/02/23 07:13:00;;;;;;;35.83;19.30;;;5.90;99.90;;;;;;5073880;28;20437;-51
2023/02/23 07:15:27;;;;;;;35.57;18.87;;;6.40;99.90;;;;;;5073857;28;20439;-51
2023/02/23 07:17:54;;;;;;;44.70;20.00;;;6.20;99.90;;;;;;5073515;28;20794;-50
2023/02/23 07:20:21;;;;;;;41.23;20.10;;;6.50;99.90;;;;;;5073451;28;20412;-51
2023/02/23 07:22:47;;;;;;;28.57;18.10;;;6.40;99.90;;;;;;5072219;28;20423;-49
2023/02/23 07:25:14;;;;;;;32.67;18.67;;;6.70;99.90;;;;;;5073621;28;20439;-51
2023/02/23 07:27:44;;;;;;;36.33;19.93;;;6.40;99.90;;;;;;5073796;28;20459;-51
2023/02/23 07:30:12;;;;;;;25.47;16.90;;;6.80;99.90;;;;;;5073489;28;20471;-49
2023/02/23 07:32:38;;;;;;;33.77;20.10;;;6.50;99.90;;;;;;5073295;28;20429;-50
2023/02/23 07:35:06;;;;;;;28.33;18.13;;;6.50;99.90;;;;;;5073385;28;20850;-50
2023/02/23 07:37:33;;;;;;;29.80;19.37;;;6.90;99.90;;;;;;5073274;28;20430;-51
2023/02/23 07:40:00;;;;;;;28.50;19.43;;;6.90;99.90;;;;;;5072337;28;20407;-50
2023/02/23 07:42:26;;;;;;;32.67;18.20;;;6.80;99.90;;;;;;5072132;28;20526;-50
2023/02/23 07:44:54;;;;;;;30.07;18.00;;;6.90;99.90;;;;;;5073021;28;20419;-49
2023/02/23 07:47:21;;;;;;;32.13;18.37;;;7.10;99.90;;;;;;5071358;28;20462;-51
2023/02/23 07:49:48;;;;;;;32.53;19.50;;;6.70;99.90;;;;;;5072896;28;20414;-51
2023/02/23 07:52:18;;;;;;;34.63;18.30;;;6.60;99.90;;;;;;5073532;28;20916;-50
2023/02/23 07:54:45;;;;;;;30.30;18.93;;;6.80;99.90;;;;;;5073754;28;20932;-50
2023/02/23 07:57:11;;;;;;;33.20;19.00;;;7.00;99.90;;;;;;5072702;28;20452;-50
2023/02/23 07:59:38;;;;;;;28.10;19.70;;;7.20;99.90;;;;;;5072424;28;20412;-50
2023/02/23 08:02:06;;;;;;;38.30;19.70;;;7.20;99.90;;;;;;5073302;28;20522;-50
2023/02/23 08:04:33;;;;;;;36.83;19.47;;;6.60;99.90;;;;;;5072564;28;20542;-50
2023/02/23 08:07:00;;;;;;;28.00;17.30;;;6.90;99.90;;;;;;5038151;28;1013843;-51
2023/02/23 08:09:26;;;;;;;28.90;17.97;;;7.10;99.90;;;;;;5072993;28;20630;-50
2023/02/23 08:11:53;;;;;;;36.40;19.10;;;7.20;99.90;;;;;;5073901;28;20834;-49
2023/02/23 08:14:22;;;;;;;35.13;18.80;;;7.00;99.90;;;;;;5073344;28;20954;-51
2023/02/23 08:16:49;;;;;;;31.63;18.70;;;7.00;99.90;;;;;;5073935;28;20462;-51
2023/02/23 08:19:17;;;;;;;32.80;17.97;;;7.30;99.90;;;;;;5073297;28;20698;-51
2023/02/23 08:21:43;;;;;;;30.93;17.87;;;7.30;99.90;;;;;;5073838;28;20420;-50
2023/02/23 08:24:10;;;;;;;31.10;20.60;;;7.40;99.90;;;;;;5073713;28;20491;-51
2023/02/23 08:26:37;;;;;;;33.33;18.37;;;7.10;99.90;;;;;;5073496;28;20949;-50
2023/02/23 08:29:04;;;;;;;33.70;18.50;;;6.70;99.90;;;;;;5072991;28;20499;-49
2023/02/23 08:31:31;;;;;;;31.73;18.10;;;7.40;99.90;;;;;;5073059;28;20392;-51
2023/02/23 08:33:58;;;;;;;31.10;18.73;;;7.30;99.90;;;;;;5073333;28;20496;-51
2023/02/23 08:36:26;;;;;;;31.70;20.20;;;7.20;99.90;;;;;;5073512;28;20427;-50
2023/02/23 08:38:53;;;;;;;36.20;20.57;;;7.30;99.90;;;;;;5072773;28;20429;-50
2023/02/23 08:41:21;;;;;;;31.20;19.57;;;7.00;99.90;;;;;;5073805;28;20429;-49
2023/02/23 08:43:48;;;;;;;28.80;19.23;;;7.60;99.90;;;;;;5073014;28;20400;-50
2023/02/23 08:46:17;;;;;;;34.27;19.50;;;7.70;99.90;;;;;;5073338;28;20428;-50
2023/02/23 08:48:44;;;;;;;34.33;19.97;;;7.60;99.90;;;;;;5072939;28;20418;-51
2023/02/23 08:51:10;;;;;;;31.40;18.77;;;8.10;99.90;;;;;;5073411;28;20440;-51
2023/02/23 08:53:38;;;;;;;34.70;20.63;;;7.50;99.90;;;;;;5073118;28;20477;-51
2023/02/23 08:56:07;;;;;;;26.67;18.70;;;7.60;99.90;;;;;;5071621;28;20446;-50
2023/02/23 08:58:35;;;;;;;35.73;20.00;;;7.50;99.90;;;;;;5072976;28;20445;-51
2023/02/23 09:01:01;;;;;;;28.47;18.87;;;7.70;99.90;;;;;;5073438;28;20429;-50
2023/02/23 09:03:29;;;;;;;41.70;21.23;;;7.50;99.90;;;;;;5072873;28;20410;-50
2023/02/23 09:06:04;;;;;;;32.50;21.37;;;7.80;99.90;;;;;;5072732;28;20844;-50
2023/02/23 09:08:31;;;;;;;35.37;24.50;;;8.00;99.90;;;;;;5072197;28;20461;-51
2023/02/23 09:10:59;;;;;;;34.77;19.37;;;8.00;99.90;;;;;;5072616;28;20408;-51
2023/02/23 09:13:26;;;;;;;28.40;19.23;;;8.10;99.90;;;;;;5072733;28;20444;-50
2023/02/23 09:15:53;;;;;;;28.13;19.70;;;7.80;99.90;;;;;;5071409;28;21024;-51
2023/02/23 09:18:19;;;;;;;28.20;18.73;;;7.40;99.90;;;;;;5072208;28;20420;-51
2023/02/23 09:20:46;;;;;;;34.43;19.57;;;8.00;99.90;;;;;;5072135;28;20926;-51
2023/02/23 09:23:13;;;;;;;27.10;18.83;;;7.90;99.90;;;;;;5072324;28;20919;-51
2023/02/23 09:25:42;;;;;;;30.30;19.50;;;8.50;99.90;;;;;;5072568;28;20409;-51
2023/02/23 09:28:11;;;;;;;30.20;19.37;;;8.00;99.90;;;;;;5072410;28;20963;-51
2023/02/23 09:30:39;;;;;;;35.37;21.17;;;8.30;99.90;;;;;;5072407;28;20438;-50
2023/02/23 09:33:07;;;;;;;25.40;18.70;;;8.70;99.90;;;;;;5072326;28;20434;-50
2023/02/23 09:35:35;;;;;;;33.13;19.17;;;8.30;99.90;;;;;;5072967;28;20969;-50
2023/02/23 09:38:02;;;;;;;31.60;19.50;;;8.20;99.90;;;;;;5072413;28;20432;-51
2023/02/23 09:40:38;;;;;;;30.07;19.03;;;8.20;99.90;;;;;;5072173;28;20461;-51
2023/02/23 09:43:12;;;;;;;38.40;20.47;;;8.50;99.90;;;;;;5072445;28;20412;-51
2023/02/23 09:45:42;;;;;;;33.80;19.77;;;8.30;99.90;;;;;;5071762;28;21031;-50
2023/02/23 09:48:15;;;;;;;31.37;20.37;;;8.00;99.90;;;;;;5068732;28;20459;-51
2023/02/23 09:50:46;;;;;;;30.90;20.40;;;8.70;99.90;;;;;;5074252;28;20450;-49
2023/02/23 09:53:25;;;;;;;38.33;22.00;;;8.60;99.90;;;;;;5069780;28;20424;-49
2023/02/23 09:55:54;;;;;;;40.57;21.93;;;8.70;99.90;;;;;;5074693;28;20799;-50
2023/02/23 09:58:23;;;;;;;40.73;21.70;;;8.80;99.90;;;;;;5073404;28;20416;-50
2023/02/23 10:01:19;;;;;;;31.97;20.10;;;8.70;99.90;;;;;;5074287;28;20897;-50
2023/02/23 10:03:52;;;;;;;30.50;19.30;;;9.00;99.90;;;;;;5070839;28;20435;-52
2023/02/23 10:06:19;;;;;;;36.27;20.80;;;9.00;99.90;;;;;;5072310;28;20492;-50
2023/02/23 10:08:56;;;;;;;32.27;21.30;;;9.50;99.90;;;;;;5070473;28;20433;-50
2023/02/23 10:11:34;;;;;;;33.13;20.53;;;9.40;99.90;;;;;;5072214;28;20553;-51
2023/02/23 10:14:13;;;;;;;34.20;20.03;;;8.90;99.90;;;;;;5072215;28;21003;-51
2023/02/23 10:16:51;;;;;;;29.07;19.20;;;9.40;99.90;;;;;;5070517;28;20473;-49
2023/02/23 10:19:24;;;;;;;35.13;21.30;;;9.70;99.90;;;;;;5071395;28;20412;-51
2023/02/23 10:21:55;;;;;;;31.10;20.03;;;9.60;99.90;;;;;;5072126;28;20405;-52
2023/02/23 10:24:27;;;;;;;34.10;19.70;;;9.50;99.90;;;;;;5071865;28;20404;-51
2023/02/23 10:26:59;;;;;;;33.13;19.30;;;9.40;99.90;;;;;;5071888;28;20611;-51
2023/02/23 10:29:31;;;;;;;28.77;21.40;;;9.90;99.90;;;;;;5071833;28;20453;-51
2023/02/23 10:32:02;;;;;;;28.43;19.50;;;9.80;99.90;;;;;;5072142;28;20472;-50
2023/02/23 10:34:30;;;;;;;32.00;21.65;;;9.80;99.90;;;;;;5074174;28;20484;-51
2023/02/23 10:37:00;;;;;;;33.33;21.50;;;10.00;99.90;;;;;;5075764;28;20297;-51
2023/02/23 10:39:28;;;;;;;34.20;20.53;;;10.00;99.90;;;;;;5075378;28;20911;-52
2023/02/23 10:41:58;;;;;;;31.23;21.00;;;10.00;99.90;;;;;;5076020;28;20456;-52
2023/02/23 10:44:27;;;;;;;29.97;20.63;;;10.10;99.90;;;;;;5075306;28;20420;-51
2023/02/23 10:46:57;;;;;;;32.80;22.63;;;10.40;99.90;;;;;;5075399;28;20449;-50
2023/02/23 10:49:39;;;;;;;28.53;21.47;;;10.30;99.90;;;;;;5073988;28;20951;-50
2023/02/23 10:52:12;;;;;;;31.30;20.37;;;10.80;99.90;;;;;;5075237;28;20404;-51
2023/02/23 10:54:46;;;;;;;36.83;20.80;;;10.10;99.90;;;;;;5074973;28;20502;-50
2023/02/23 10:57:20;;;;;;;31.27;20.80;;;10.60;99.90;;;;;;5075175;28;20430;-50
2023/02/23 11:00:07;;;;;;;32.60;22.30;;;10.80;99.90;;;;;;5075550;28;20783;-50
2023/02/23 11:02:35;;;;;;;29.70;22.27;;;10.80;99.90;;;;;;5075284;28;20419;-51
2023/02/23 11:05:05;;;;;;;37.47;24.20;;;10.70;99.90;;;;;;5075643;28;20445;-50
2023/02/23 11:07:33;;;;;;;36.67;23.60;;;10.80;99.90;;;;;;5088340;22;20477;-49
2023/02/23 11:10:25;;;;;;;36.87;22.87;;;10.90;99.90;;;;;;5054114;28;20429;-50
2023/02/23 11:12:52;;;;;;;36.97;22.50;;;11.00;99.90;;;;;;5054154;28;20415;-50
2023/02/23 11:15:26;;;;;;;31.80;21.67;;;11.10;99.90;;;;;;5054107;28;20482;-51
2023/02/23 11:17:56;;;;;;;35.03;23.20;;;11.10;99.90;;;;;;5053829;28;20974;-49
2023/02/23 11:20:29;;;;;;;36.77;23.00;;;11.40;99.90;;;;;;5053750;28;20433;-49
2023/02/23 11:22:56;;;;;;;31.07;22.30;;;10.90;99.90;;;;;;5054465;28;20412;-49
2023/02/23 11:25:29;;;;;;;32.33;20.97;;;11.20;99.90;;;;;;5053905;28;20511;-50
2023/02/23 11:27:56;;;;;;;30.30;22.20;;;11.20;99.90;;;;;;5053903;28;20467;-50
2023/02/23 11:30:28;;;;;;;31.60;21.50;;;11.40;99.90;;;;;;5053870;28;20418;-51
2023/02/23 11:32:57;;;;;;;32.53;23.27;;;11.00;99.90;;;;;;5054030;28;20494;-50
2023/02/23 11:35:30;;;;;;;33.23;22.40;;;11.30;99.90;;;;;;5054012;28;20483;-50
2023/02/23 11:37:57;;;;;;;32.17;22.70;;;11.30;99.90;;;;;;5053917;28;20771;-51
2023/02/23 11:40:29;;;;;;;37.50;23.10;;;11.30;99.90;;;;;;5053208;28;20442;-50
2023/02/23 11:43:06;;;;;;;37.87;23.20;;;11.30;99.90;;;;;;5053931;28;20433;-50
2023/02/23 11:45:38;;;;;;;32.97;22.57;;;11.50;99.90;;;;;;5035317;28;20413;-51
2023/02/23 11:48:05;;;;;;;36.87;23.40;;;11.30;99.90;;;;;;5035575;28;20842;-51
2023/02/23 11:50:35;;;;;;;34.60;22.43;;;11.50;99.90;;;;;;5053426;28;20412;-49
2023/02/23 11:53:05;;;;;;;34.33;23.80;;;11.70;99.90;;;;;;5053596;28;20437;-50
2023/02/23 11:55:36;;;;;;;33.20;22.43;;;11.30;99.90;;;;;;5053514;28;20481;-51
2023/02/23 11:58:21;;;;;;;40.07;23.93;;;11.80;99.90;;;;;;5053212;28;20427;-50
2023/02/23 12:00:55;;;;;;;33.40;21.93;;;11.90;99.90;;;;;;5035420;28;20449;-51
2023/02/23 12:03:24;;;;;;;25.90;20.57;;;12.00;99.90;;;;;;5053236;28;20441;-50
2023/02/23 12:05:53;;;;;;;32.87;23.77;;;12.10;99.90;;;;;;5053425;28;20430;-51
2023/02/23 12:08:30;;;;;;;33.77;22.17;;;12.20;99.90;;;;;;5052845;28;20459;-52
2023/02/23 12:11:02;;;;;;;37.43;25.97;;;12.20;99.90;;;;;;5053248;28;20441;-52
2023/02/23 12:13:35;;;;;;;35.70;23.90;;;12.40;99.90;;;;;;5053004;28;20804;-52
2023/02/23 12:16:07;;;;;;;35.87;24.20;;;12.00;99.90;;;;;;5053255;28;20488;-51
2023/02/23 12:18:44;;;;;;;32.13;23.90;;;12.30;99.90;;;;;;5053045;28;20515;-50
2023/02/23 12:21:21;;;;;;;30.13;22.00;;;12.80;99.90;;;;;;5052918;28;20534;-50
2023/02/23 12:23:48;;;;;;;34.90;22.70;;;12.70;99.90;;;;;;5050108;28;20464;-51
2023/02/23 12:26:21;;;;;;;39.60;24.40;;;12.70;99.90;;;;;;5053083;28;20427;-50
2023/02/23 12:28:53;;;;;;;30.97;21.87;;;12.60;99.90;;;;;;5050739;28;20416;-50
2023/02/23 12:31:27;;;;;;;33.60;23.93;;;12.70;99.90;;;;;;5047476;28;20551;-52
2023/02/23 12:33:59;;;;;;;37.67;23.07;;;12.70;99.90;;;;;;5024891;28;20459;-50
2023/02/23 12:36:34;;;;;;;32.83;22.50;;;12.80;99.90;;;;;;5051628;28;20492;-50
2023/02/23 12:39:06;;;;;;;29.23;21.80;;;13.10;99.90;;;;;;5052622;28;20984;-52
2023/02/23 12:41:39;;;;;;;32.90;22.20;;;12.90;99.90;;;;;;5042165;28;20906;-48
2023/02/23 12:44:14;;;;;;;33.37;22.83;;;13.00;99.90;;;;;;5050609;28;20456;-50
2023/02/23 12:46:47;;;;;;;29.80;22.10;;;13.00;99.90;;;;;;5024019;28;20577;-51
2023/02/23 12:49:20;;;;;;;28.77;21.73;;;13.20;99.90;;;;;;5042679;28;20548;-49
2023/02/23 12:51:53;;;;;;;32.10;22.53;;;12.80;99.90;;;;;;5045762;28;20455;-57
2023/02/23 12:54:19;;;;;;;34.97;24.10;;;13.10;99.90;;;;;;5052870;28;20433;-50
2023/02/23 12:56:58;;;;;;;37.53;22.90;;;13.10;99.90;;;;;;5051554;28;20951;-51
2023/02/23 13:00:03;;;;;;;32.00;21.60;;;13.10;99.90;;;;;;5052011;28;20452;-51
2023/02/23 13:02:38;;;;;;;29.27;22.23;;;13.30;99.90;;;;;;5050325;28;20880;-50
2023/02/23 13:05:16;;;;;;;31.23;22.73;;;13.40;99.90;;;;;;5047142;28;20449;-50
2023/02/23 13:07:53;;;;;;;26.83;20.47;;;13.30;99.90;;;;;;5043284;28;20457;-50
2023/02/23 13:10:27;;;;;;;31.90;22.67;;;13.20;99.90;;;;;;5032121;28;20429;-50
2023/02/23 13:13:04;;;;;;;30.20;22.13;;;13.10;99.90;;;;;;5047872;28;20560;-51
2023/02/23 13:15:43;;;;;;;29.17;22.20;;;13.30;99.90;;;;;;5051873;28;20973;-51
2023/02/23 13:18:14;;;;;;;30.17;21.80;;;13.40;99.90;;;;;;5051343;28;20449;-51
2023/02/23 13:20:46;;;;;;;29.17;22.20;;;13.50;99.90;;;;;;5034154;28;20446;-50
2023/02/23 13:23:21;;;;;;;33.07;23.03;;;12.60;99.90;;;;;;5032189;28;20901;-51
2023/02/23 13:25:56;;;;;;;28.93;23.03;;;13.00;99.90;;;;;;5051652;28;20445;-50
2023/02/23 13:28:36;;;;;;;29.70;22.80;;;13.00;99.90;;;;;;5031029;28;20481;-52
2023/02/23 13:31:04;;;;;;;29.50;22.73;;;13.20;99.90;;;;;;5034450;28;20488;-51
2023/02/23 13:33:33;;;;;;;28.20;23.13;;;13.20;99.90;;;;;;5049634;28;20435;-49
2023/02/23 13:36:01;;;;;;;32.70;24.17;;;13.30;99.90;;;;;;5053639;28;20464;-51
2023/02/23 13:38:38;;;;;;;34.30;24.30;;;12.90;99.90;;;;;;5055940;28;21008;-52
2023/02/23 13:41:12;;;;;;;34.77;24.40;;;13.20;99.90;;;;;;5057408;28;20418;-52
2023/02/23 13:43:49;;;;;;;27.43;21.97;;;13.20;99.90;;;;;;5065961;28;20417;-51
2023/02/23 13:46:25;;;;;;;33.13;23.33;;;13.10;99.90;;;;;;5070647;28;20928;-51
2023/02/23 13:48:57;;;;;;;29.40;23.00;;;13.20;99.90;;;;;;5069774;28;20522;-51
2023/02/23 13:51:32;;;;;;;33.17;24.63;;;13.30;99.90;;;;;;5070498;28;20474;-52
2023/02/23 13:54:03;;;;;;;32.80;24.70;;;13.20;99.90;;;;;;5050059;28;21017;-50
2023/02/23 13:56:32;;;;;;;32.93;22.20;;;13.00;99.90;;;;;;5049822;28;20505;-51
2023/02/23 13:59:03;;;;;;;34.73;24.00;;;13.00;99.90;;;;;;5050927;28;20460;-51
2023/02/23 14:01:32;;;;;;;31.17;22.53;;;13.30;99.90;;;;;;5049821;28;20445;-51
2023/02/23 14:04:01;;;;;;;29.53;24.23;;;13.20;99.90;;;;;;5069593;28;20470;-50
2023/02/23 14:06:31;;;;;;;29.87;23.67;;;13.00;99.90;;;;;;5070614;28;20479;-52
2023/02/23 14:09:00;;;;;;;30.93;23.40;;;13.10;99.90;;;;;;5070666;28;20807;-51